Terminal Aerodrome Forecast
Issued by NWS Jackson, MS

Home | Current Version | Previous Version | Text Only | Print | Product List | Glossary On
Versions: 1 2 3 4 5 6 7 8 9 10 11 12 13 14
000
FTUS44 KJAN 260157 AAA
TAFJAN
TAF AMD
KJAN 260157Z 2602/2624 21006KT 6SM -TSRA SCT025 BKN040CB
     FM260300 VRB03KT P6SM SCT060
     FM261500 36007KT P6SM SCT060=

USA.gov is the U.S. government's official web portal to all federal, state and local government web resources and services.